createdAt,value
2022-12-02T00:03:25.984Z,77.35
2022-12-02T00:08:32.237Z,77.24
2022-12-02T00:13:45.003Z,77.21
2022-12-02T00:18:51.382Z,77.47
2022-12-02T00:23:55.647Z,77.27
2022-12-02T00:29:01.030Z,77.12
2022-12-02T00:34:06.502Z,77.32
2022-12-02T00:39:11.024Z,77.20
2022-12-02T00:44:34.782Z,77.61
2022-12-02T00:49:39.330Z,77.42
2022-12-02T00:54:44.244Z,77.69
2022-12-02T00:59:48.543Z,77.45
2022-12-02T01:04:53.911Z,77.59
2022-12-02T01:09:59.659Z,77.24
2022-12-02T01:15:04.331Z,77.39
2022-12-02T01:20:09.607Z,77.17
2022-12-02T01:25:13.940Z,77.61
2022-12-02T01:30:19.357Z,77.90
2022-12-02T01:35:24.661Z,77.57
2022-12-02T01:40:30.414Z,77.34
2022-12-02T01:45:34.260Z,77.47
2022-12-02T01:50:38.696Z,77.82
2022-12-02T01:55:43.462Z,77.59
2022-12-02T02:00:48.591Z,77.12
2022-12-02T02:05:54.396Z,77.40
2022-12-02T02:11:00.002Z,77.45
2022-12-02T02:16:05.442Z,77.13
2022-12-02T02:21:20.993Z,77.10
2022-12-02T02:26:26.256Z,77.22
2022-12-02T02:31:31.124Z,77.07
2022-12-02T02:36:35.569Z,77.38
2022-12-02T02:41:39.896Z,76.82
2022-12-02T02:46:43.736Z,77.16
2022-12-02T02:51:49.338Z,77.42
2022-12-02T02:56:54.101Z,77.35
2022-12-02T03:01:57.791Z,77.42
2022-12-02T03:07:01.322Z,77.20
2022-12-02T03:12:06.662Z,77.29
2022-12-02T03:17:10.838Z,77.12
2022-12-02T03:22:16.051Z,77.01
2022-12-02T03:27:20.715Z,77.44
2022-12-02T03:32:26.347Z,77.35
2022-12-02T03:37:30.419Z,77.18
2022-12-02T03:42:35.284Z,77.41
2022-12-02T03:47:40.723Z,77.24
2022-12-02T03:52:45.140Z,77.23
2022-12-02T03:57:49.172Z,76.89
2022-12-02T04:02:52.426Z,77.24
2022-12-02T04:07:57.739Z,77.15
2022-12-02T04:13:02.876Z,77.21
2022-12-02T04:18:07.038Z,77.41
2022-12-02T04:23:11.117Z,77.18
2022-12-02T04:28:16.048Z,77.50
2022-12-02T04:33:20.235Z,77.13
2022-12-02T04:38:25.066Z,77.50
2022-12-02T04:43:30.641Z,77.36
2022-12-02T04:48:34.607Z,77.57
2022-12-02T04:53:39.516Z,77.25
2022-12-02T04:58:43.399Z,77.30
2022-12-02T05:03:46.878Z,77.66
2022-12-02T05:08:52.025Z,77.68
2022-12-02T05:13:57.219Z,77.87
2022-12-02T05:19:02.240Z,77.73
2022-12-02T05:24:08.039Z,77.57
2022-12-02T05:29:12.662Z,77.82
2022-12-02T05:34:16.452Z,77.77
2022-12-02T05:39:20.888Z,77.78
2022-12-02T05:44:29.305Z,77.79
2022-12-02T05:49:35.941Z,77.75
2022-12-02T05:54:41.870Z,77.75
2022-12-02T05:59:45.928Z,77.83
2022-12-02T06:04:50.883Z,77.87
2022-12-02T06:09:56.655Z,78.14
2022-12-02T06:15:01.403Z,77.85
2022-12-02T06:20:07.074Z,77.78
2022-12-02T06:25:30.516Z,78.11
2022-12-02T06:30:35.656Z,77.83
2022-12-02T06:35:41.052Z,78.01
2022-12-02T06:40:45.162Z,78.01
2022-12-02T06:45:49.641Z,77.91
2022-12-02T06:50:56.225Z,77.90
2022-12-02T06:56:26.356Z,77.71
2022-12-02T07:01:32.680Z,77.76
2022-12-02T07:06:43.244Z,77.73
2022-12-02T07:11:51.925Z,77.70
2022-12-02T07:17:19.577Z,77.95
2022-12-02T07:22:30.414Z,77.69
2022-12-02T07:27:38.944Z,77.94
2022-12-02T07:32:44.043Z,77.75
2022-12-02T07:37:48.024Z,77.82
2022-12-02T07:42:52.959Z,77.71
2022-12-02T07:47:56.657Z,77.82
2022-12-02T07:53:00.775Z,78.03
2022-12-02T07:58:05.101Z,78.17
2022-12-02T08:03:09.797Z,77.92
2022-12-02T08:08:14.868Z,78.18
2022-12-02T08:13:19.327Z,78.12
2022-12-02T08:18:23.597Z,78.35
2022-12-02T08:23:28.199Z,78.40
2022-12-02T08:28:32.519Z,77.89
2022-12-02T08:33:37.678Z,77.98
2022-12-02T08:38:45.989Z,78.35
2022-12-02T08:43:50.570Z,78.17
2022-12-02T08:48:56.107Z,78.29
2022-12-02T08:54:00.327Z,77.84
2022-12-02T08:59:05.415Z,77.96
2022-12-02T09:04:09.629Z,78.17
2022-12-02T09:09:13.483Z,77.94
2022-12-02T09:14:18.282Z,77.44
2022-12-02T09:19:22.848Z,77.65
2022-12-02T09:24:26.648Z,77.60
2022-12-02T09:29:30.198Z,77.82
2022-12-02T09:34:34.414Z,77.83
2022-12-02T09:39:39.316Z,78.13
2022-12-02T09:44:44.604Z,78.02
2022-12-02T09:49:49.298Z,77.95
2022-12-02T09:54:59.409Z,77.82
2022-12-02T10:00:21.120Z,77.97
2022-12-02T10:05:29.531Z,78.02
2022-12-02T10:10:41.055Z,77.83
2022-12-02T10:15:45.199Z,77.94
2022-12-02T10:20:50.674Z,78.19
2022-12-02T10:26:09.916Z,77.63
2022-12-02T10:31:23.178Z,77.65
2022-12-02T10:36:35.175Z,77.51
2022-12-02T10:41:40.117Z,77.75
2022-12-02T10:46:44.599Z,77.84
2022-12-02T10:51:49.008Z,77.84
2022-12-02T10:56:54.519Z,77.55
2022-12-02T11:02:00.371Z,77.43
2022-12-02T11:07:04.025Z,77.80
2022-12-02T11:12:55.624Z,77.59
2022-12-02T11:17:59.692Z,77.44
2022-12-02T11:23:18.778Z,77.24
2022-12-02T11:28:28.399Z,77.51
2022-12-02T11:33:48.749Z,77.63
2022-12-02T11:38:55.295Z,77.52
2022-12-02T11:44:29.228Z,77.71
2022-12-02T11:49:38.576Z,77.35
2022-12-02T11:55:11.793Z,77.50
2022-12-02T12:00:26.163Z,77.34
2022-12-02T12:05:29.465Z,77.21
2022-12-02T12:10:35.127Z,77.18
2022-12-02T12:15:58.350Z,77.11
2022-12-02T12:21:02.059Z,76.97
2022-12-02T12:26:06.863Z,77.11
2022-12-02T12:31:10.541Z,77.04
2022-12-02T12:36:14.208Z,77.03
2022-12-02T12:41:36.934Z,77.11
2022-12-02T12:46:41.681Z,77.14
2022-12-02T12:51:46.104Z,77.16
2022-12-02T12:56:52.852Z,77.22
2022-12-02T13:01:56.676Z,77.03
2022-12-02T13:07:03.098Z,77.25
2022-12-02T13:12:12.945Z,77.36
2022-12-02T13:17:17.027Z,77.33
2022-12-02T13:22:21.372Z,77.24
2022-12-02T13:27:25.096Z,77.29
2022-12-02T13:32:29.224Z,77.34
2022-12-02T13:37:33.066Z,77.47
2022-12-02T13:42:38.100Z,77.34
2022-12-02T13:47:41.979Z,77.24
2022-12-02T13:52:46.235Z,77.64
2022-12-02T13:57:50.082Z,77.61
2022-12-02T14:02:55.038Z,77.56
2022-12-02T14:07:59.698Z,77.38
2022-12-02T14:13:03.469Z,77.51
2022-12-02T14:18:07.940Z,77.53
2022-12-02T14:23:14.988Z,77.35
2022-12-02T14:28:19.683Z,77.68
2022-12-02T14:33:25.367Z,77.78
2022-12-02T14:38:33.165Z,77.61
2022-12-02T14:43:38.640Z,77.71
2022-12-02T14:48:42.572Z,77.77
2022-12-02T14:53:49.559Z,77.85
2022-12-02T14:58:53.126Z,77.84
2022-12-02T15:03:56.918Z,77.89
2022-12-02T15:09:00.631Z,78.03
2022-12-02T15:14:04.451Z,78.09
2022-12-02T15:19:07.853Z,78.09
2022-12-02T15:24:11.165Z,78.30
2022-12-02T15:29:14.784Z,78.15
2022-12-02T15:34:18.331Z,78.15
2022-12-02T15:39:22.424Z,78.27
2022-12-02T15:44:28.368Z,78.18
2022-12-02T15:49:32.182Z,78.13
2022-12-02T15:54:36.327Z,78.24
2022-12-02T15:59:39.994Z,78.17
2022-12-02T16:04:43.668Z,78.16
2022-12-02T16:09:48.487Z,78.04
2022-12-02T16:14:55.306Z,78.23
2022-12-02T16:20:00.941Z,78.49
2022-12-02T16:25:05.635Z,78.19
2022-12-02T16:30:10.254Z,78.28
2022-12-02T16:35:14.559Z,78.29
2022-12-02T16:40:19.737Z,78.53
2022-12-02T16:45:23.885Z,78.50
2022-12-02T16:50:28.136Z,78.29
2022-12-02T16:55:32.298Z,78.25
2022-12-02T17:00:36.577Z,78.44
2022-12-02T17:05:41.162Z,78.54
2022-12-02T17:10:45.605Z,78.62
2022-12-02T17:15:49.331Z,78.65
2022-12-02T17:20:55.703Z,78.34
2022-12-02T17:25:59.683Z,78.36
2022-12-02T17:31:04.403Z,78.56
2022-12-02T17:36:09.119Z,78.38
2022-12-02T17:41:14.110Z,78.24
2022-12-02T17:46:18.192Z,78.27
2022-12-02T17:51:24.319Z,78.26
2022-12-02T17:56:28.667Z,77.94
2022-12-02T18:01:33.268Z,77.81
2022-12-02T18:06:38.065Z,78.31
2022-12-02T18:11:42.638Z,78.46
2022-12-02T18:16:47.149Z,78.49
2022-12-02T18:21:51.894Z,78.46
2022-12-02T18:26:55.557Z,78.72
2022-12-02T18:31:59.658Z,78.67
2022-12-02T18:37:04.070Z,78.86
2022-12-02T18:42:08.716Z,78.49
2022-12-02T18:47:12.504Z,78.47
2022-12-02T18:52:17.170Z,78.43
2022-12-02T18:57:21.991Z,78.45
2022-12-02T19:02:27.188Z,78.25
2022-12-02T19:07:32.283Z,78.11
2022-12-02T19:12:38.040Z,78.24
2022-12-02T19:17:42.786Z,78.19
2022-12-02T19:22:47.640Z,78.19
2022-12-02T19:27:59.629Z,78.50
2022-12-02T19:33:04.454Z,78.60
2022-12-02T19:38:14.819Z,78.48
2022-12-02T19:43:21.157Z,78.47
2022-12-02T19:48:27.003Z,78.85
2022-12-02T19:53:31.300Z,78.78
2022-12-02T19:58:35.377Z,78.89
2022-12-02T20:03:40.961Z,78.81
2022-12-02T20:08:45.578Z,78.95
2022-12-02T20:13:49.991Z,79.02
2022-12-02T20:18:54.557Z,78.92
2022-12-02T20:23:59.556Z,78.95
2022-12-02T20:29:04.491Z,78.96
2022-12-02T20:34:09.201Z,78.64
2022-12-02T20:39:15.585Z,78.79
2022-12-02T20:44:21.487Z,78.92
2022-12-02T20:49:26.699Z,78.97
2022-12-02T20:54:31.626Z,78.78
2022-12-02T20:59:36.755Z,79.03
2022-12-02T21:04:43.876Z,79.05
2022-12-02T21:09:49.693Z,79.19
2022-12-02T21:14:54.330Z,79.10
2022-12-02T21:19:59.667Z,79.11
2022-12-02T21:25:04.059Z,79.25
2022-12-02T21:30:11.108Z,79.35
2022-12-02T21:35:15.315Z,79.14
2022-12-02T21:40:20.410Z,79.21
2022-12-02T21:45:25.574Z,79.30
2022-12-02T21:50:31.013Z,79.22
2022-12-02T21:55:36.003Z,79.07
2022-12-02T22:00:42.110Z,79.34
2022-12-02T22:05:47.549Z,79.43
2022-12-02T22:10:52.831Z,79.38
2022-12-02T22:15:57.192Z,79.43
2022-12-02T22:21:02.122Z,79.61
2022-12-02T22:26:06.530Z,79.63
2022-12-02T22:31:10.541Z,79.66
2022-12-02T22:36:14.553Z,79.81
2022-12-02T22:41:19.341Z,79.97
2022-12-02T22:46:23.999Z,80.08
2022-12-02T22:51:34.010Z,80.09
2022-12-02T22:56:41.036Z,80.12
2022-12-02T23:01:45.031Z,80.05
2022-12-02T23:06:49.054Z,80.40
2022-12-02T23:11:53.010Z,80.39
2022-12-02T23:16:57.343Z,80.37
2022-12-02T23:22:03.491Z,80.47
2022-12-02T23:27:08.711Z,80.46
2022-12-02T23:32:13.002Z,80.54
2022-12-02T23:37:17.898Z,80.68
2022-12-02T23:42:23.273Z,80.79
2022-12-02T23:47:27.837Z,80.79
2022-12-02T23:52:32.734Z,80.95
2022-12-02T23:57:36.429Z,80.97
